sensor_id;sensor_type;location;lat;lon;timestamp;pressure;altitude;pressure_sealevel;temperature;humidity
22572;BME280;11452;53.368;14.658;2023-04-01T00:01:15;99081.61;;;12.60;86.51
22572;BME280;11452;53.368;14.658;2023-04-01T00:06:21;99081.96;;;12.61;86.56
22572;BME280;11452;53.368;14.658;2023-04-01T00:11:26;99089.06;;;12.66;86.60
22572;BME280;11452;53.368;14.658;2023-04-01T00:16:32;99092.51;;;12.63;86.55
22572;BME280;11452;53.368;14.658;2023-04-01T00:21:38;99090.77;;;12.58;86.51
22572;BME280;11452;53.368;14.658;2023-04-01T00:26:44;99102.25;;;12.54;86.68
22572;BME280;11452;53.368;14.658;2023-04-01T00:31:52;99095.73;;;12.47;86.74
22572;BME280;11452;53.368;14.658;2023-04-01T00:36:57;99091.45;;;12.50;87.04
22572;BME280;11452;53.368;14.658;2023-04-01T00:42:04;99094.67;;;12.44;86.96
22572;BME280;11452;53.368;14.658;2023-04-01T00:47:10;99093.15;;;12.41;87.25
22572;BME280;11452;53.368;14.658;2023-04-01T00:52:19;99094.84;;;12.42;87.41
22572;BME280;11452;53.368;14.658;2023-04-01T00:57:33;99099.98;;;12.40;87.50
22572;BME280;11452;53.368;14.658;2023-04-01T01:02:41;99101.77;;;12.30;87.55
22572;BME280;11452;53.368;14.658;2023-04-01T01:18:31;99116.61;;;11.42;86.80
22572;BME280;11452;53.368;14.658;2023-04-01T01:29:33;99118.66;;;11.03;87.48
22572;BME280;11452;53.368;14.658;2023-04-01T01:34:40;99131.19;;;10.70;86.70
22572;BME280;11452;53.368;14.658;2023-04-01T01:39:50;99139.87;;;10.52;87.30
22572;BME280;11452;53.368;14.658;2023-04-01T01:44:55;99140.24;;;10.41;87.04
22572;BME280;11452;53.368;14.658;2023-04-01T01:50:02;99142.58;;;10.24;87.00
22572;BME280;11452;53.368;14.658;2023-04-01T01:55:34;99147.08;;;10.01;87.14
22572;BME280;11452;53.368;14.658;2023-04-01T02:00:41;99159.80;;;9.86;86.91
22572;BME280;11452;53.368;14.658;2023-04-01T02:05:51;99153.27;;;9.79;86.75
22572;BME280;11452;53.368;14.658;2023-04-01T02:16:32;99160.86;;;9.45;87.36
22572;BME280;11452;53.368;14.658;2023-04-01T02:21:40;99168.81;;;9.33;86.91
22572;BME280;11452;53.368;14.658;2023-04-01T02:26:48;99171.02;;;9.40;87.37
22572;BME280;11452;53.368;14.658;2023-04-01T02:31:55;99170.41;;;9.36;86.59
22572;BME280;11452;53.368;14.658;2023-04-01T02:37:02;99174.74;;;9.31;87.16
22572;BME280;11452;53.368;14.658;2023-04-01T02:42:08;99180.56;;;9.25;86.72
22572;BME280;11452;53.368;14.658;2023-04-01T02:47:13;99185.75;;;9.21;86.82
22572;BME280;11452;53.368;14.658;2023-04-01T02:52:19;99191.88;;;9.11;86.92
22572;BME280;11452;53.368;14.658;2023-04-01T02:57:25;99202.27;;;9.02;86.61
22572;BME280;11452;53.368;14.658;2023-04-01T03:02:31;99202.64;;;8.80;86.84
22572;BME280;11452;53.368;14.658;2023-04-01T03:07:37;99217.30;;;8.61;87.10
22572;BME280;11452;53.368;14.658;2023-04-01T03:12:42;99214.59;;;8.74;88.09
22572;BME280;11452;53.368;14.658;2023-04-01T03:17:48;99219.16;;;8.66;87.41
22572;BME280;11452;53.368;14.658;2023-04-01T03:22:54;99227.80;;;8.57;87.44
22572;BME280;11452;53.368;14.658;2023-04-01T03:27:59;99231.42;;;8.56;87.74
22572;BME280;11452;53.368;14.658;2023-04-01T03:33:06;99229.13;;;8.52;87.66
22572;BME280;11452;53.368;14.658;2023-04-01T03:38:11;99237.13;;;8.57;87.71
22572;BME280;11452;53.368;14.658;2023-04-01T03:43:17;99242.23;;;8.60;87.38
22572;BME280;11452;53.368;14.658;2023-04-01T03:48:23;99245.47;;;8.53;87.25
22572;BME280;11452;53.368;14.658;2023-04-01T03:53:30;99252.23;;;8.26;87.03
22572;BME280;11452;53.368;14.658;2023-04-01T03:58:37;99257.55;;;8.26;87.08
22572;BME280;11452;53.368;14.658;2023-04-01T04:03:43;99259.28;;;8.14;87.43
22572;BME280;11452;53.368;14.658;2023-04-01T04:08:50;99270.48;;;8.25;87.75
22572;BME280;11452;53.368;14.658;2023-04-01T04:13:56;99279.61;;;8.15;87.21
22572;BME280;11452;53.368;14.658;2023-04-01T04:19:03;99293.33;;;8.09;87.34
22572;BME280;11452;53.368;14.658;2023-04-01T04:24:09;99296.56;;;8.20;87.68
22572;BME280;11452;53.368;14.658;2023-04-01T04:29:17;99299.45;;;8.29;87.54
22572;BME280;11452;53.368;14.658;2023-04-01T04:34:22;99307.91;;;8.29;87.39
22572;BME280;11452;53.368;14.658;2023-04-01T04:39:28;99314.13;;;8.22;87.03
22572;BME280;11452;53.368;14.658;2023-04-01T04:44:34;99316.72;;;8.17;87.44
22572;BME280;11452;53.368;14.658;2023-04-01T04:49:40;99329.72;;;8.21;87.41
22572;BME280;11452;53.368;14.658;2023-04-01T04:54:46;99330.64;;;8.15;86.93
22572;BME280;11452;53.368;14.658;2023-04-01T04:59:51;99341.29;;;8.15;87.15
22572;BME280;11452;53.368;14.658;2023-04-01T05:05:10;99345.31;;;8.08;86.48
22572;BME280;11452;53.368;14.658;2023-04-01T05:10:16;99351.86;;;7.96;87.53
22572;BME280;11452;53.368;14.658;2023-04-01T05:15:22;99361.27;;;7.95;86.99
22572;BME280;11452;53.368;14.658;2023-04-01T05:20:29;99364.63;;;7.84;87.06
22572;BME280;11452;53.368;14.658;2023-04-01T05:25:37;99364.34;;;7.69;87.35
22572;BME280;11452;53.368;14.658;2023-04-01T05:30:43;99377.55;;;7.83;87.81
22572;BME280;11452;53.368;14.658;2023-04-01T05:36:14;99375.00;;;7.82;87.66
22572;BME280;11452;53.368;14.658;2023-04-01T05:41:21;99375.47;;;7.81;87.77
22572;BME280;11452;53.368;14.658;2023-04-01T05:46:27;99378.23;;;7.80;87.87
22572;BME280;11452;53.368;14.658;2023-04-01T05:51:34;99380.79;;;7.81;87.93
22572;BME280;11452;53.368;14.658;2023-04-01T05:56:40;99383.63;;;7.85;88.17
22572;BME280;11452;53.368;14.658;2023-04-01T06:01:46;99389.58;;;7.76;87.69
22572;BME280;11452;53.368;14.658;2023-04-01T06:06:52;99393.48;;;7.71;87.88
22572;BME280;11452;53.368;14.658;2023-04-01T06:22:46;99409.38;;;7.85;88.00
22572;BME280;11452;53.368;14.658;2023-04-01T06:38:59;99426.36;;;7.89;88.91
22572;BME280;11452;53.368;14.658;2023-04-01T06:56:29;99429.99;;;7.81;87.53
22572;BME280;11452;53.368;14.658;2023-04-01T07:01:02;99444.09;;;7.76;87.62
22572;BME280;11452;53.368;14.658;2023-04-01T07:06:20;99448.88;;;7.91;87.98
22572;BME280;11452;53.368;14.658;2023-04-01T07:11:31;99457.08;;;8.00;87.79
22572;BME280;11452;53.368;14.658;2023-04-01T07:16:51;99462.05;;;8.39;88.94
22572;BME280;11452;53.368;14.658;2023-04-01T07:22:29;99471.07;;;8.56;87.74
22572;BME280;11452;53.368;14.658;2023-04-01T07:27:42;99463.81;;;8.33;87.05
22572;BME280;11452;53.368;14.658;2023-04-01T07:33:07;99479.93;;;8.37;86.86
22572;BME280;11452;53.368;14.658;2023-04-01T07:43:38;99494.48;;;8.12;85.99
22572;BME280;11452;53.368;14.658;2023-04-01T07:48:58;99505.84;;;8.21;86.66
22572;BME280;11452;53.368;14.658;2023-04-01T07:54:08;99505.98;;;8.12;86.18
22572;BME280;11452;53.368;14.658;2023-04-01T07:59:29;99515.47;;;8.43;87.93
22572;BME280;11452;53.368;14.658;2023-04-01T08:04:40;99516.44;;;8.15;85.51
22572;BME280;11452;53.368;14.658;2023-04-01T08:09:49;99523.41;;;8.23;86.31
22572;BME280;11452;53.368;14.658;2023-04-01T08:15:21;99530.91;;;8.31;86.55
22572;BME280;11452;53.368;14.658;2023-04-01T08:20:47;99544.08;;;8.47;86.12
22572;BME280;11452;53.368;14.658;2023-04-01T08:31:18;99547.89;;;8.16;85.53
22572;BME280;11452;53.368;14.658;2023-04-01T08:36:29;99557.88;;;8.12;85.84
22572;BME280;11452;53.368;14.658;2023-04-01T08:52:36;99568.66;;;8.23;85.41
22572;BME280;11452;53.368;14.658;2023-04-01T08:58:03;99570.67;;;8.34;85.89
22572;BME280;11452;53.368;14.658;2023-04-01T09:08:43;99577.85;;;8.39;85.51
22572;BME280;11452;53.368;14.658;2023-04-01T09:13:55;99594.15;;;8.35;85.21
22572;BME280;11452;53.368;14.658;2023-04-01T09:19:14;99599.14;;;8.39;85.24
22572;BME280;11452;53.368;14.658;2023-04-01T09:24:35;99606.17;;;8.47;84.84
22572;BME280;11452;53.368;14.658;2023-04-01T09:30:00;99604.11;;;8.31;83.92
22572;BME280;11452;53.368;14.658;2023-04-01T09:35:21;99621.13;;;8.28;84.62
22572;BME280;11452;53.368;14.658;2023-04-01T09:40:36;99622.91;;;8.42;84.55
22572;BME280;11452;53.368;14.658;2023-04-01T09:46:33;99628.15;;;8.37;83.22
22572;BME280;11452;53.368;14.658;2023-04-01T09:51:01;99632.22;;;8.49;83.86
22572;BME280;11452;53.368;14.658;2023-04-01T10:12:58;99672.01;;;8.03;82.20
22572;BME280;11452;53.368;14.658;2023-04-01T10:23:47;99665.70;;;8.18;81.28
22572;BME280;11452;53.368;14.658;2023-04-01T10:29:02;99667.89;;;8.25;81.53
22572;BME280;11452;53.368;14.658;2023-04-01T10:34:38;99664.19;;;8.28;81.90
22572;BME280;11452;53.368;14.658;2023-04-01T10:45:34;99679.10;;;8.45;81.89
22572;BME280;11452;53.368;14.658;2023-04-01T10:50:52;99688.05;;;8.44;80.72
22572;BME280;11452;53.368;14.658;2023-04-01T11:39:32;99744.70;;;8.31;79.99
22572;BME280;11452;53.368;14.658;2023-04-01T12:01:29;99759.99;;;7.99;79.22
22572;BME280;11452;53.368;14.658;2023-04-01T12:17:45;99774.78;;;8.33;79.60
22572;BME280;11452;53.368;14.658;2023-04-01T12:39:16;99806.87;;;8.23;78.69
22572;BME280;11452;53.368;14.658;2023-04-01T13:06:20;99825.68;;;8.20;77.82
22572;BME280;11452;53.368;14.658;2023-04-01T13:27:29;99859.41;;;8.06;76.86
22572;BME280;11452;53.368;14.658;2023-04-01T13:37:54;99874.55;;;8.12;75.67
22572;BME280;11452;53.368;14.658;2023-04-01T13:43:14;99892.52;;;8.16;75.79
22572;BME280;11452;53.368;14.658;2023-04-01T13:58:43;99898.66;;;7.72;74.88
22572;BME280;11452;53.368;14.658;2023-04-01T14:04:15;99905.30;;;7.72;75.52
22572;BME280;11452;53.368;14.658;2023-04-01T14:09:38;99917.00;;;7.61;75.57
22572;BME280;11452;53.368;14.658;2023-04-01T14:25:54;99932.61;;;7.60;76.00
22572;BME280;11452;53.368;14.658;2023-04-01T14:31:33;99949.88;;;7.44;75.79
22572;BME280;11452;53.368;14.658;2023-04-01T14:36:47;99964.58;;;7.43;75.31
22572;BME280;11452;53.368;14.658;2023-04-01T14:52:52;99969.95;;;7.34;76.23
22572;BME280;11452;53.368;14.658;2023-04-01T14:58:26;99982.67;;;7.20;75.57
22572;BME280;11452;53.368;14.658;2023-04-01T15:08:51;99993.77;;;7.20;75.31
22572;BME280;11452;53.368;14.658;2023-04-01T15:13:49;100000.82;;;7.37;75.84
22572;BME280;11452;53.368;14.658;2023-04-01T15:19:29;100011.44;;;7.21;74.75
22572;BME280;11452;53.368;14.658;2023-04-01T15:31:09;100026.21;;;7.18;75.14
22572;BME280;11452;53.368;14.658;2023-04-01T15:35:56;100028.73;;;7.37;75.46
22572;BME280;11452;53.368;14.658;2023-04-01T15:52:05;100057.40;;;7.06;74.11
22572;BME280;11452;53.368;14.658;2023-04-01T16:02:49;100067.59;;;6.98;74.37
22572;BME280;11452;53.368;14.658;2023-04-01T16:13:19;100086.86;;;7.10;74.43
22572;BME280;11452;53.368;14.658;2023-04-01T16:24:03;100111.58;;;7.03;74.16
22572;BME280;11452;53.368;14.658;2023-04-01T16:29:12;100125.32;;;6.94;74.14
22572;BME280;11452;53.368;14.658;2023-04-01T16:39:54;100138.98;;;6.78;73.85
22572;BME280;11452;53.368;14.658;2023-04-01T16:50:22;100157.48;;;6.62;74.38
22572;BME280;11452;53.368;14.658;2023-04-01T17:01:12;100169.42;;;6.71;74.28
22572;BME280;11452;53.368;14.658;2023-04-01T17:17:42;100205.20;;;6.72;73.27
22572;BME280;11452;53.368;14.658;2023-04-01T17:22:27;100227.02;;;6.51;73.37
22572;BME280;11452;53.368;14.658;2023-04-01T17:33:04;100238.48;;;6.52;73.35
22572;BME280;11452;53.368;14.658;2023-04-01T17:38:13;100250.28;;;6.46;73.42
22572;BME280;11452;53.368;14.658;2023-04-01T17:54:01;100273.30;;;6.27;72.86
22572;BME280;11452;53.368;14.658;2023-04-01T17:59:24;100283.12;;;6.25;73.13
22572;BME280;11452;53.368;14.658;2023-04-01T18:04:40;100278.88;;;6.21;72.57
22572;BME280;11452;53.368;14.658;2023-04-01T18:09:48;100301.60;;;6.08;72.85
22572;BME280;11452;53.368;14.658;2023-04-01T18:30:29;100342.19;;;6.10;72.55
22572;BME280;11452;53.368;14.658;2023-04-01T18:35:50;100345.01;;;6.15;72.50
22572;BME280;11452;53.368;14.658;2023-04-01T18:47:05;100379.45;;;6.07;72.40
22572;BME280;11452;53.368;14.658;2023-04-01T18:52:42;100396.63;;;5.76;72.05
22572;BME280;11452;53.368;14.658;2023-04-01T18:57:57;100411.55;;;5.79;71.64
22572;BME280;11452;53.368;14.658;2023-04-01T19:03:23;100405.66;;;5.82;71.56
22572;BME280;11452;53.368;14.658;2023-04-01T19:08:34;100414.26;;;5.67;71.45
22572;BME280;11452;53.368;14.658;2023-04-01T19:46:48;100454.06;;;5.87;69.98
22572;BME280;11452;53.368;14.658;2023-04-01T19:58:03;100470.44;;;5.87;69.50
22572;BME280;11452;53.368;14.658;2023-04-01T20:07:46;100495.59;;;5.77;70.06
22572;BME280;11452;53.368;14.658;2023-04-01T20:13:13;100504.05;;;5.65;69.36
22572;BME280;11452;53.368;14.658;2023-04-01T20:23:39;100519.88;;;5.56;69.86
22572;BME280;11452;53.368;14.658;2023-04-01T20:39:48;100550.20;;;5.37;69.71
22572;BME280;11452;53.368;14.658;2023-04-01T21:06:17;100576.89;;;5.66;69.94
22572;BME280;11452;53.368;14.658;2023-04-01T21:33:01;100594.42;;;5.47;69.40
22572;BME280;11452;53.368;14.658;2023-04-01T21:38:29;100607.83;;;5.42;69.47
22572;BME280;11452;53.368;14.658;2023-04-01T21:59:53;100628.88;;;5.47;69.37
22572;BME280;11452;53.368;14.658;2023-04-01T22:05:18;100637.50;;;5.40;69.04
22572;BME280;11452;53.368;14.658;2023-04-01T22:15:51;100655.38;;;5.35;68.97
22572;BME280;11452;53.368;14.658;2023-04-01T22:21:03;100661.04;;;5.25;68.59
22572;BME280;11452;53.368;14.658;2023-04-01T22:31:56;100669.75;;;5.28;68.45
22572;BME280;11452;53.368;14.658;2023-04-01T22:36:58;100679.12;;;5.25;68.28
22572;BME280;11452;53.368;14.658;2023-04-01T22:52:42;100687.75;;;5.43;67.80
22572;BME280;11452;53.368;14.658;2023-04-01T23:24:45;100732.63;;;5.36;67.20
22572;BME280;11452;53.368;14.658;2023-04-01T23:29:48;100734.12;;;5.18;66.71
22572;BME280;11452;53.368;14.658;2023-04-01T23:35:00;100749.64;;;5.29;67.35
22572;BME280;11452;53.368;14.658;2023-04-01T23:40:08;100749.56;;;5.19;66.77
22572;BME280;11452;53.368;14.658;2023-04-01T23:45:17;100752.67;;;5.18;67.03
22572;BME280;11452;53.368;14.658;2023-04-01T23:50:26;100767.41;;;5.39;67.26
22572;BME280;11452;53.368;14.658;2023-04-01T23:55:33;100771.28;;;5.55;67.23
